KSOW/SOW METAR and TAF weather

Enter ICAO airport designator
Station Type Date Time Source
KSOW METAR 2020/07/08 22:35 UTC NOAA

KSOW 082235Z AUTO 22013KT 10SM SCT110 31/01 A3017 RMK AO2


Station Type Date Time Source
KSOW Decoded METAR 2020/07/08 22:35 UTC NOAA

Show Low, Show Low Regional Airport, AZ, United States (KSOW) 34-15-55N 110-00-20W
Jul 08, 2020 - 06:35 PM EDT / 2020.07.08 2235 UTC
Wind: from the SW (220 degrees) at 15 MPH (13 KT):0
Visibility: 10 mile(s):0
Sky conditions: partly cloudy
Temperature: 87 F (31 C)
Dew Point: 33 F (1 C)
Relative Humidity: 14%
Pressure (altimeter): 30.17 in. Hg (1021 hPa)
ob: KSOW 082235Z AUTO 22013KT 10SM SCT110 31/01 A3017 RMK AO2
cycle: 22

Station Type Date Time Source
KSOW TAF UTC NOAA

Error!

Example: see airport list